Time;durP1;ratioP1;P1;durP2;ratioP2;P2;SDS_P1;SDS_P2;PMS_P1;PMS_P2;Temp;Humidity;BMP_temperature;BMP_pressure;BME280_temperature;BME280_humidity;BME280_pressure;Samples;Min_cycle;Max_cycle;Signal;HPM_P1;HPM_P2
2023/08/20 00:02:19;;;;;;;6.22;2.40;;;;;;;18.05;100.00;101895.47;5043077;28;20068;-71
2023/08/20 00:04:46;;;;;;;5.32;2.67;;;;;;;18.05;100.00;101890.94;5043219;28;20109;-71
2023/08/20 00:07:12;;;;;;;6.75;2.97;;;;;;;18.15;100.00;101896.63;5043814;28;20036;-71
2023/08/20 00:09:37;;;;;;;8.65;2.80;;;;;;;18.10;100.00;101887.94;5045130;28;20384;-70
2023/08/20 00:12:05;;;;;;;5.50;2.83;;;;;;;18.16;100.00;101888.41;5047393;28;20039;-71
2023/08/20 00:14:54;;;;;;;6.50;2.78;;;;;;;18.16;100.00;101892.94;5043647;28;20113;-71
2023/08/20 00:17:28;;;;;;;5.57;2.50;;;;;;;18.11;100.00;101884.31;5040202;28;20098;-71
2023/08/20 00:19:54;;;;;;;6.20;2.70;;;;;;;18.06;100.00;101897.22;5041445;28;20122;-69
2023/08/20 00:22:24;;;;;;;7.38;2.90;;;;;;;18.02;100.00;101903.78;5038535;28;20079;-70
2023/08/20 00:24:53;;;;;;;5.50;3.05;;;;;;;17.97;100.00;101895.13;5041122;28;20037;-70
2023/08/20 00:27:22;;;;;;;6.93;2.83;;;;;;;17.94;100.00;101900.72;5036838;28;20057;-70
2023/08/20 00:29:47;;;;;;;7.30;2.92;;;;;;;17.85;100.00;101891.41;5042411;28;20039;-70
2023/08/20 00:32:14;;;;;;;4.85;3.05;;;;;;;17.79;100.00;101898.03;5056110;28;20036;-70
2023/08/20 00:34:40;;;;;;;6.13;2.60;;;;;;;17.75;100.00;101892.97;5041879;28;20033;-70
2023/08/20 00:37:05;;;;;;;6.15;3.13;;;;;;;17.69;100.00;101891.50;5040191;28;20031;-70
2023/08/20 00:39:30;;;;;;;6.85;3.00;;;;;;;17.70;100.00;101905.81;5045070;28;20032;-70
2023/08/20 00:41:56;;;;;;;6.00;3.00;;;;;;;17.67;100.00;101904.19;5048319;28;20467;-69
2023/08/20 00:44:21;;;;;;;7.03;3.15;;;;;;;17.58;100.00;101912.84;5042579;28;20032;-70
2023/08/20 00:46:47;;;;;;;4.68;3.10;;;;;;;17.62;100.00;101911.69;5048518;28;20025;-70
2023/08/20 00:49:13;;;;;;;8.63;3.63;;;;;;;17.63;100.00;101926.88;5039846;28;20064;-70
2023/08/20 00:51:39;;;;;;;8.45;3.60;;;;;;;17.64;100.00;101921.41;5043097;28;20482;-70
2023/08/20 00:54:05;;;;;;;8.00;3.70;;;;;;;17.74;100.00;101924.41;5039437;28;20112;-70
2023/08/20 00:56:30;;;;;;;8.48;3.88;;;;;;;17.81;100.00;101923.06;5042698;28;20594;-70
2023/08/20 00:58:57;;;;;;;8.48;3.88;;;;;;;17.89;100.00;101930.63;5041508;28;20017;-69
2023/08/20 01:01:22;;;;;;;7.28;3.80;;;;;;;17.90;100.00;101927.00;5056430;28;20016;-71
2023/08/20 01:03:48;;;;;;;8.38;3.33;;;;;;;17.94;100.00;101933.91;5041269;28;20139;-70
2023/08/20 01:06:36;;;;;;;7.43;3.90;;;;;;;17.95;100.00;101941.00;5040056;28;20433;-70
2023/08/20 01:09:08;;;;;;;9.00;3.75;;;;;;;17.95;100.00;101950.94;5040746;28;20295;-70
2023/08/20 01:11:41;;;;;;;7.18;3.40;;;;;;;17.99;100.00;101947.06;5038184;28;20397;-71
2023/08/20 01:14:16;;;;;;;6.68;3.47;;;;;;;18.01;100.00;101956.75;5039355;28;20025;-69
2023/08/20 01:16:42;;;;;;;9.13;3.70;;;;;;;18.09;100.00;101961.66;5031857;28;20052;-71
2023/08/20 01:19:12;;;;;;;7.15;3.28;;;;;;;18.09;100.00;101967.06;5039305;28;20020;-70
2023/08/20 01:21:39;;;;;;;6.10;3.22;;;;;;;18.15;100.00;101972.94;5059037;28;20025;-70
2023/08/20 01:24:33;;;;;;;7.95;3.42;;;;;;;18.22;100.00;101981.47;5036460;28;20517;-70
2023/08/20 01:27:20;;;;;;;9.65;3.70;;;;;;;18.29;100.00;101971.16;5037502;28;20048;-69
2023/08/20 01:29:45;;;;;;;7.45;3.70;;;;;;;18.31;100.00;101959.31;5038910;28;20195;-70
2023/08/20 01:32:12;;;;;;;8.65;3.70;;;;;;;18.40;100.00;101957.84;5044970;28;20209;-70
2023/08/20 01:34:38;;;;;;;8.43;3.72;;;;;;;18.41;100.00;101963.13;5042341;28;20055;-70
2023/08/20 01:37:03;;;;;;;5.57;3.35;;;;;;;18.44;100.00;101963.91;5046061;28;20063;-70
2023/08/20 01:39:28;;;;;;;6.53;3.45;;;;;;;18.40;100.00;101945.22;5036252;28;20029;-70
2023/08/20 01:41:54;;;;;;;7.63;3.92;;;;;;;18.44;100.00;101947.72;5042497;28;20503;-70
2023/08/20 01:44:19;;;;;;;8.98;3.95;;;;;;;18.43;100.00;101963.00;5039286;28;20054;-70
2023/08/20 01:46:44;;;;;;;7.85;3.67;;;;;;;18.51;100.00;101952.59;5039624;28;20591;-70
2023/08/20 01:49:10;;;;;;;6.97;3.58;;;;;;;18.50;100.00;101945.47;5039830;28;20450;-70
2023/08/20 01:51:36;;;;;;;8.55;3.83;;;;;;;18.56;100.00;101958.56;5038835;28;20318;-70
2023/08/20 01:54:02;;;;;;;7.78;4.10;;;;;;;18.54;100.00;101952.38;5041873;28;20399;-71
2023/08/20 01:56:27;;;;;;;6.13;3.45;;;;;;;18.53;100.00;101952.50;5044051;28;20048;-71
2023/08/20 01:58:52;;;;;;;6.65;3.50;;;;;;;18.54;100.00;101959.63;5045532;28;20040;-71
2023/08/20 02:01:18;;;;;;;7.28;4.10;;;;;;;18.50;100.00;101963.47;5045762;28;20377;-71
2023/08/20 02:03:43;;;;;;;7.22;4.00;;;;;;;18.47;100.00;101959.16;5039532;28;20033;-71
2023/08/20 02:06:09;;;;;;;7.72;3.50;;;;;;;18.54;100.00;101965.00;5043363;28;20300;-71
2023/08/20 02:08:34;;;;;;;6.30;3.15;;;;;;;18.50;100.00;101968.88;5037181;28;20408;-70
2023/08/20 02:11:04;;;;;;;6.82;3.30;;;;;;;18.52;100.00;101977.72;5041190;28;20286;-70
2023/08/20 02:13:30;;;;;;;6.50;3.22;;;;;;;18.53;100.00;101982.16;5044443;28;20037;-70
2023/08/20 02:16:03;;;;;;;5.97;3.70;;;;;;;18.57;100.00;101986.38;5037294;28;20040;-71
2023/08/20 02:18:30;;;;;;;5.03;3.33;;;;;;;18.51;100.00;101986.78;5033158;28;20040;-71
2023/08/20 02:20:56;;;;;;;7.53;3.30;;;;;;;18.54;100.00;101991.97;5044353;28;20024;-70
2023/08/20 02:23:21;;;;;;;8.23;3.67;;;;;;;18.53;100.00;101968.69;5043835;28;20181;-70
2023/08/20 02:25:47;;;;;;;6.28;3.38;;;;;;;18.55;100.00;101981.06;5052908;28;20533;-70
2023/08/20 02:28:12;;;;;;;6.30;3.38;;;;;;;18.57;100.00;101976.47;5041993;28;20067;-70
2023/08/20 02:30:43;;;;;;;5.10;3.40;;;;;;;18.45;100.00;101971.88;5037820;28;20026;-70
2023/08/20 02:33:09;;;;;;;5.22;3.30;;;;;;;18.35;100.00;101976.13;5040040;28;20035;-71
2023/08/20 02:35:38;;;;;;;7.07;3.78;;;;;;;18.28;100.00;101975.69;5042028;28;20032;-70
2023/08/20 02:38:04;;;;;;;6.20;3.35;;;;;;;18.17;100.00;101964.72;5047444;28;20124;-70
2023/08/20 02:40:30;;;;;;;8.52;3.47;;;;;;;18.13;100.00;101972.16;5046545;28;20037;-70
2023/08/20 02:42:56;;;;;;;5.70;3.67;;;;;;;18.03;100.00;101970.16;5036844;28;20541;-70
2023/08/20 02:45:21;;;;;;;10.00;4.38;;;;;;;17.98;100.00;101974.97;5042797;28;20021;-70
2023/08/20 02:47:47;;;;;;;5.95;3.67;;;;;;;18.01;100.00;101970.25;5035343;28;20533;-70
2023/08/20 02:50:13;;;;;;;6.75;4.10;;;;;;;17.99;100.00;101965.94;5041006;28;20554;-69
2023/08/20 02:52:38;;;;;;;7.88;3.38;;;;;;;17.96;100.00;101958.91;5045353;28;20115;-69
2023/08/20 02:55:06;;;;;;;7.32;4.10;;;;;;;17.91;100.00;101963.72;5040584;28;20115;-70
2023/08/20 02:57:32;;;;;;;6.72;3.92;;;;;;;17.75;100.00;101955.75;5039913;28;20053;-70
2023/08/20 02:59:57;;;;;;;6.68;4.13;;;;;;;17.73;100.00;101957.66;5041188;28;20094;-70
2023/08/20 03:02:23;;;;;;;10.15;4.30;;;;;;;17.61;100.00;101959.28;5039544;28;20523;-70
2023/08/20 03:04:48;;;;;;;7.35;4.10;;;;;;;17.54;100.00;101951.69;5037276;28;20161;-71
2023/08/20 03:07:13;;;;;;;7.97;3.55;;;;;;;17.48;100.00;101952.09;5041188;28;20494;-70
2023/08/20 03:09:39;;;;;;;8.13;4.40;;;;;;;17.45;100.00;101952.28;5049240;28;20067;-70
2023/08/20 03:12:05;;;;;;;6.65;3.58;;;;;;;17.36;100.00;101959.94;5048417;28;20028;-69
2023/08/20 03:14:30;;;;;;;9.32;4.45;;;;;;;17.33;100.00;101959.28;5045688;28;20400;-70
2023/08/20 03:16:56;;;;;;;9.35;4.38;;;;;;;17.29;100.00;101958.59;5049562;28;20550;-70
2023/08/20 03:19:21;;;;;;;7.97;3.88;;;;;;;17.29;100.00;101955.91;5044898;28;20422;-71
2023/08/20 03:21:47;;;;;;;6.57;4.47;;;;;;;17.22;100.00;101948.28;5041526;28;20835;-70
2023/08/20 03:24:12;;;;;;;6.13;3.85;;;;;;;17.20;100.00;101950.22;5038702;28;20029;-70
2023/08/20 03:26:37;;;;;;;6.07;3.92;;;;;;;17.15;100.00;101951.38;5043593;28;20490;-70
2023/08/20 03:29:03;;;;;;;7.43;3.97;;;;;;;17.10;100.00;101947.25;5043845;28;20033;-70
2023/08/20 03:31:28;;;;;;;5.03;3.60;;;;;;;17.06;100.00;101945.69;5046928;28;20040;-70
2023/08/20 03:33:54;;;;;;;5.03;3.63;;;;;;;17.05;100.00;101952.00;5042515;28;20031;-70
2023/08/20 03:36:19;;;;;;;6.97;4.35;;;;;;;16.97;100.00;101956.97;5046806;28;20037;-70
2023/08/20 03:38:45;;;;;;;7.57;4.13;;;;;;;16.90;100.00;101951.97;5055913;28;20025;-69
2023/08/20 03:41:10;;;;;;;7.82;4.22;;;;;;;16.88;100.00;101951.19;5044823;28;20040;-70
2023/08/20 03:43:35;;;;;;;7.95;3.80;;;;;;;16.85;100.00;101956.78;5043623;28;20032;-69
2023/08/20 03:46:02;;;;;;;6.15;3.65;;;;;;;16.82;100.00;101954.25;5065067;28;20021;-70
2023/08/20 03:48:27;;;;;;;5.75;3.70;;;;;;;16.78;100.00;101954.53;5045259;28;20447;-70
2023/08/20 03:50:52;;;;;;;6.63;3.88;;;;;;;16.76;100.00;101964.50;5044405;28;20063;-70
2023/08/20 03:53:18;;;;;;;6.25;3.92;;;;;;;16.68;100.00;101963.13;5038709;28;20055;-70
2023/08/20 03:55:50;;;;;;;5.95;3.80;;;;;;;16.68;100.00;101968.50;5046002;28;20485;-70
2023/08/20 03:58:16;;;;;;;9.18;4.07;;;;;;;16.63;100.00;101975.94;5038642;28;20514;-70
2023/08/20 04:00:43;;;;;;;5.57;3.88;;;;;;;16.57;100.00;101980.81;5048799;28;20025;-69
2023/08/20 04:03:08;;;;;;;7.45;3.75;;;;;;;16.50;100.00;101966.00;5039754;28;20025;-70
2023/08/20 04:05:37;;;;;;;7.97;4.28;;;;;;;16.46;100.00;101973.38;5045812;28;20542;-69
2023/08/20 04:08:04;;;;;;;6.78;3.90;;;;;;;16.43;100.00;101968.19;5041842;28;20108;-70
2023/08/20 04:10:29;;;;;;;6.70;4.20;;;;;;;16.45;100.00;101977.00;5055365;28;20100;-69
2023/08/20 04:12:54;;;;;;;5.90;3.88;;;;;;;16.40;100.00;101973.72;5040144;28;20035;-69
2023/08/20 04:15:23;;;;;;;6.95;4.13;;;;;;;16.41;100.00;101983.53;5049336;28;20032;-70
2023/08/20 04:17:48;;;;;;;8.75;4.43;;;;;;;16.38;100.00;101983.69;5041514;28;20043;-70
2023/08/20 04:20:14;;;;;;;7.78;4.57;;;;;;;16.39;100.00;101994.38;5043794;28;20024;-69
2023/08/20 04:22:40;;;;;;;8.07;4.30;;;;;;;16.32;100.00;101992.13;5042018;28;20640;-70
2023/08/20 04:25:06;;;;;;;5.28;3.60;;;;;;;16.26;100.00;101993.34;5043332;28;20384;-70
2023/08/20 04:27:31;;;;;;;7.35;4.13;;;;;;;16.24;100.00;101981.78;5058091;28;20025;-71
2023/08/20 04:29:57;;;;;;;6.95;4.07;;;;;;;16.17;100.00;101988.47;5048001;28;20102;-70
2023/08/20 04:32:22;;;;;;;7.85;4.65;;;;;;;16.18;100.00;101987.53;5038962;28;20032;-69
2023/08/20 04:34:49;;;;;;;6.70;4.18;;;;;;;16.15;100.00;101990.38;5042994;28;20046;-69
2023/08/20 04:37:15;;;;;;;10.80;4.25;;;;;;;16.13;100.00;101997.63;5043116;28;20260;-69
2023/08/20 04:39:40;;;;;;;5.80;3.80;;;;;;;16.10;100.00;101992.47;5043111;28;20419;-71
2023/08/20 04:42:06;;;;;;;6.22;4.15;;;;;;;16.12;100.00;101993.22;5047107;28;20120;-70
2023/08/20 04:44:31;;;;;;;7.03;3.80;;;;;;;16.15;100.00;101987.69;5044976;28;20165;-70
2023/08/20 04:46:57;;;;;;;7.35;4.20;;;;;;;16.07;100.00;101995.31;5039090;28;20372;-70
2023/08/20 04:49:22;;;;;;;6.53;4.13;;;;;;;16.12;100.00;101996.78;5040547;28;20040;-69
2023/08/20 04:51:47;;;;;;;7.18;3.95;;;;;;;16.12;100.00;101991.41;5040730;28;20036;-68
2023/08/20 04:54:13;;;;;;;6.95;4.15;;;;;;;16.16;100.00;101997.47;5044932;28;20116;-70
2023/08/20 04:56:38;;;;;;;5.53;3.97;;;;;;;16.15;100.00;101995.75;5038884;28;20056;-70
2023/08/20 04:59:04;;;;;;;5.32;4.07;;;;;;;16.13;100.00;101998.50;5031301;28;20068;-69
2023/08/20 05:01:29;;;;;;;7.03;4.05;;;;;;;16.21;100.00;102003.44;5044468;28;20033;-70
2023/08/20 05:03:54;;;;;;;6.00;4.10;;;;;;;16.19;100.00;101998.19;5044920;28;20029;-70
2023/08/20 05:06:20;;;;;;;5.35;3.95;;;;;;;16.23;100.00;101998.88;5043983;28;20519;-70
2023/08/20 05:08:46;;;;;;;5.78;4.00;;;;;;;16.29;100.00;102005.72;5044773;28;20044;-70
2023/08/20 05:11:11;;;;;;;5.32;4.05;;;;;;;16.27;100.00;102000.44;5044144;28;20058;-70
2023/08/20 05:13:36;;;;;;;6.15;4.70;;;;;;;16.23;100.00;101998.00;5035681;28;20024;-70
2023/08/20 05:16:02;;;;;;;7.03;4.45;;;;;;;16.25;100.00;102005.00;5045134;28;20041;-70
2023/08/20 05:18:27;;;;;;;7.50;4.15;;;;;;;16.26;100.00;102000.50;5046276;28;20033;-69
2023/08/20 05:20:53;;;;;;;7.90;5.15;;;;;;;16.31;100.00;102007.38;5039830;28;20025;-70
2023/08/20 05:23:18;;;;;;;7.57;4.50;;;;;;;16.31;100.00;102009.19;5042741;28;20112;-70
2023/08/20 05:25:43;;;;;;;6.50;4.80;;;;;;;16.33;100.00;102008.13;5045479;28;20068;-70
2023/08/20 05:28:09;;;;;;;6.95;5.05;;;;;;;16.36;100.00;102013.34;5044022;28;20032;-70
2023/08/20 05:30:34;;;;;;;7.88;4.93;;;;;;;16.39;100.00;102005.13;5037905;28;20111;-70
2023/08/20 05:33:00;;;;;;;6.15;5.03;;;;;;;16.44;100.00;102012.91;5044211;28;20090;-70
2023/08/20 05:35:25;;;;;;;7.00;5.07;;;;;;;16.53;100.00;102009.69;5045284;28;20380;-71
2023/08/20 05:37:53;;;;;;;7.03;5.22;;;;;;;16.64;100.00;102014.47;5029497;28;20021;-71
2023/08/20 05:40:20;;;;;;;6.50;5.22;;;;;;;16.74;100.00;102010.31;5044888;28;20036;-70
2023/08/20 05:42:46;;;;;;;9.05;5.07;;;;;;;16.80;100.00;102009.06;5050888;28;20043;-71
2023/08/20 05:45:11;;;;;;;7.90;4.90;;;;;;;17.01;100.00;102015.88;5034490;28;20056;-69
2023/08/20 05:47:36;;;;;;;5.93;4.35;;;;;;;17.20;100.00;102020.19;5041076;28;20390;-69
2023/08/20 05:50:02;;;;;;;7.28;4.85;;;;;;;17.50;100.00;102020.13;5042852;28;20609;-70
2023/08/20 05:52:27;;;;;;;9.43;5.25;;;;;;;17.63;100.00;102015.72;5038708;28;20565;-70
2023/08/20 05:54:53;;;;;;;7.93;4.75;;;;;;;17.82;100.00;102023.56;5040562;28;20048;-70
2023/08/20 05:57:18;;;;;;;6.63;4.88;;;;;;;18.03;100.00;102024.03;5040813;28;20037;-70
2023/08/20 05:59:43;;;;;;;7.88;5.47;;;;;;;18.36;100.00;102026.41;5036308;28;20028;-69
2023/08/20 06:02:09;;;;;;;6.93;4.40;;;;;;;18.57;100.00;102019.59;5036241;28;20119;-70
2023/08/20 06:04:34;;;;;;;6.28;4.72;;;;;;;18.76;100.00;102021.09;5041026;28;20487;-69
2023/08/20 06:07:00;;;;;;;7.28;4.82;;;;;;;18.91;100.00;102018.25;5039924;28;20119;-70
2023/08/20 06:09:25;;;;;;;8.98;4.88;;;;;;;19.10;100.00;102019.69;5037702;28;20108;-70
2023/08/20 06:11:51;;;;;;;7.57;4.32;;;;;;;19.32;100.00;102013.69;5048068;28;20031;-70
2023/08/20 06:14:16;;;;;;;8.82;4.55;;;;;;;19.51;100.00;102011.41;5050647;28;20398;-70
2023/08/20 06:16:42;;;;;;;7.00;3.90;;;;;;;19.86;100.00;102005.41;5037578;28;20029;-71
2023/08/20 06:19:08;;;;;;;8.63;4.03;;;;;;;20.00;100.00;102004.41;5038405;28;20024;-70
2023/08/20 06:21:33;;;;;;;5.18;3.58;;;;;;;20.23;100.00;102003.63;5047313;28;20036;-71
2023/08/20 06:23:59;;;;;;;6.95;3.55;;;;;;;20.44;100.00;102005.69;5038855;28;20533;-70
2023/08/20 06:26:24;;;;;;;7.13;2.78;;;;;;;20.57;100.00;102011.97;5039976;28;20085;-71
2023/08/20 06:28:49;;;;;;;8.10;3.03;;;;;;;20.72;94.66;102008.09;5035606;28;20025;-71
2023/08/20 06:31:15;;;;;;;10.02;4.10;;;;;;;20.79;94.96;102013.91;5038234;28;20112;-71
2023/08/20 06:33:40;;;;;;;7.68;3.92;;;;;;;20.86;94.78;102015.19;5043338;28;20087;-68
2023/08/20 06:36:06;;;;;;;11.90;3.22;;;;;;;20.89;92.22;102013.09;5032534;28;20151;-69
2023/08/20 06:38:31;;;;;;;7.97;3.95;;;;;;;21.01;92.60;102018.56;5043486;28;20243;-69
2023/08/20 06:40:56;;;;;;;9.30;3.17;;;;;;;21.22;87.30;102025.03;5049225;28;20425;-70
2023/08/20 06:43:22;;;;;;;7.53;2.95;;;;;;;21.48;87.20;102023.03;5040633;28;20336;-71
2023/08/20 06:45:47;;;;;;;6.65;2.90;;;;;;;21.48;86.18;102038.41;5039447;28;20491;-69
2023/08/20 06:48:13;;;;;;;5.38;2.50;;;;;;;21.63;84.36;102031.81;5036789;28;20029;-70
2023/08/20 06:50:38;;;;;;;9.15;3.55;;;;;;;21.61;82.69;102033.75;5035594;28;20518;-70
2023/08/20 06:53:05;;;;;;;11.35;5.03;;;;;;;21.87;82.89;102031.72;5037325;28;20021;-70
2023/08/20 06:55:30;;;;;;;10.13;5.40;;;;;;;21.95;80.68;102040.09;5040563;28;20029;-70
2023/08/20 06:57:55;;;;;;;7.03;2.58;;;;;;;22.02;79.96;102041.31;5034613;28;20048;-69
2023/08/20 07:00:24;;;;;;;8.32;3.00;;;;;;;22.28;78.05;102049.22;5041633;28;20039;-72
2023/08/20 07:02:49;;;;;;;6.13;2.78;;;;;;;22.36;79.61;102039.47;5046966;28;20044;-70
2023/08/20 07:05:15;;;;;;;6.03;2.63;;;;;;;22.59;76.51;102034.00;5040774;28;20521;-70
2023/08/20 07:07:40;;;;;;;7.55;2.38;;;;;;;22.78;76.23;102036.91;5042182;28;20543;-70
2023/08/20 07:10:06;;;;;;;7.40;2.70;;;;;;;23.14;75.18;102034.81;5039639;28;20538;-71
2023/08/20 07:12:31;;;;;;;5.68;2.33;;;;;;;23.22;72.87;102036.88;5041258;28;20452;-72
2023/08/20 07:14:57;;;;;;;6.93;2.30;;;;;;;23.51;71.35;102035.22;5033921;28;20525;-71
2023/08/20 07:17:22;;;;;;;5.72;2.50;;;;;;;23.87;71.55;102038.47;5035278;28;20069;-70
2023/08/20 07:19:48;;;;;;;6.60;2.05;;;;;;;23.93;69.10;102048.78;5039538;28;20051;-71
2023/08/20 07:22:13;;;;;;;6.97;2.20;;;;;;;24.14;67.01;102046.00;5041054;28;20036;-71
2023/08/20 07:24:38;;;;;;;5.80;2.42;;;;;;;24.35;67.92;102043.22;5038499;28;20032;-71
2023/08/20 07:27:10;;;;;;;6.35;2.58;;;;;;;24.66;66.92;102045.88;5034984;28;20033;-72
2023/08/20 07:29:36;;;;;;;6.03;2.00;;;;;;;24.93;66.41;102046.06;5045206;28;20294;-69
2023/08/20 07:32:03;;;;;;;7.78;2.28;;;;;;;25.19;64.64;102043.66;5033051;28;20274;-71
2023/08/20 07:34:28;;;;;;;4.93;2.00;;;;;;;25.22;63.23;102045.25;5040173;28;20075;-72
2023/08/20 07:36:54;;;;;;;5.80;2.10;;;;;;;25.91;61.22;102047.69;5036656;28;20104;-70
2023/08/20 07:39:19;;;;;;;6.13;2.38;;;;;;;26.22;62.41;102045.56;5039086;28;20128;-71
2023/08/20 07:41:45;;;;;;;7.57;2.22;;;;;;;26.51;60.19;102048.16;5038102;28;20015;-70
2023/08/20 07:44:10;;;;;;;6.55;2.40;;;;;;;26.66;59.10;102048.50;5035459;28;20091;-71
2023/08/20 07:46:36;;;;;;;5.88;2.30;;;;;;;26.81;56.86;102048.84;5041794;28;20033;-71
2023/08/20 07:49:01;;;;;;;4.82;1.95;;;;;;;27.04;56.76;102060.13;5038967;28;20028;-72
2023/08/20 07:51:26;;;;;;;6.60;2.45;;;;;;;27.39;55.69;102047.50;5054212;28;20056;-70
2023/08/20 07:53:52;;;;;;;6.38;2.45;;;;;;;27.95;51.79;102052.50;5040473;28;20508;-71
2023/08/20 07:56:17;;;;;;;7.07;2.28;;;;;;;28.20;52.01;102064.44;5041096;28;20605;-69
2023/08/20 07:58:43;;;;;;;4.72;2.15;;;;;;;28.25;51.65;102062.06;5042904;28;20033;-71
2023/08/20 08:01:08;;;;;;;6.38;2.20;;;;;;;28.64;49.72;102057.97;5033520;28;20025;-69
2023/08/20 08:03:33;;;;;;;4.97;2.40;;;;;;;28.76;49.23;102070.28;5036728;28;20068;-71
2023/08/20 08:05:59;;;;;;;6.18;2.40;;;;;;;29.03;47.71;102069.19;5037175;28;20461;-71
2023/08/20 08:08:24;;;;;;;4.18;1.92;;;;;;;29.29;48.01;102071.75;5043719;28;20052;-72
2023/08/20 08:10:50;;;;;;;7.50;2.63;;;;;;;29.37;46.21;102070.91;5046077;28;20506;-71
2023/08/20 08:13:19;;;;;;;4.82;2.15;;;;;;;29.69;45.74;102068.19;5055713;28;20024;-71
2023/08/20 08:15:45;;;;;;;7.50;2.47;;;;;;;30.45;44.88;102076.88;5037603;28;20021;-70
2023/08/20 08:18:12;;;;;;;5.80;2.42;;;;;;;30.68;42.82;102080.53;5043248;28;20111;-70
2023/08/20 08:20:37;;;;;;;6.15;2.60;;;;;;;30.83;42.63;102082.53;5039746;28;20113;-71
2023/08/20 08:23:03;;;;;;;5.45;2.50;;;;;;;31.48;42.43;102084.81;5043294;28;20028;-71
2023/08/20 08:25:28;;;;;;;8.00;2.80;;;;;;;31.53;40.91;102079.59;5036509;28;20021;-72
2023/08/20 08:27:54;;;;;;;4.38;2.28;;;;;;;31.97;40.68;102078.81;5045354;28;20060;-72
2023/08/20 08:30:19;;;;;;;4.80;2.25;;;;;;;32.29;40.81;102080.34;5044980;28;20017;-69
2023/08/20 08:32:45;;;;;;;6.30;2.55;;;;;;;32.62;39.09;102080.78;5043941;28;20451;-72
2023/08/20 08:35:10;;;;;;;5.30;2.53;;;;;;;32.94;38.99;102082.25;5042103;28;20029;-70
2023/08/20 08:37:37;;;;;;;6.55;3.20;;;;;;;33.34;37.45;102090.06;5035273;28;20036;-70
2023/08/20 08:40:06;;;;;;;6.85;3.05;;;;;;;33.20;38.42;102084.41;5037203;28;20028;-70
2023/08/20 08:42:33;;;;;;;5.15;2.92;;;;;;;33.61;37.88;102096.66;5033213;28;20051;-70
2023/08/20 08:45:02;;;;;;;6.45;3.00;;;;;;;33.83;37.36;102090.06;5037914;28;20511;-71
2023/08/20 08:47:29;;;;;;;5.03;2.40;;;;;;;34.46;37.61;102081.72;5046593;28;20024;-71
2023/08/20 08:49:59;;;;;;;6.60;2.58;;;;;;;34.72;35.53;102089.28;5066849;28;20490;-71
2023/08/20 08:52:25;;;;;;;5.32;2.80;;;;;;;35.12;33.83;102089.41;5034411;28;20037;-71
2023/08/20 08:54:51;;;;;;;7.47;3.70;;;;;;;35.15;33.86;102088.97;5041624;28;20082;-71
2023/08/20 08:57:16;;;;;;;7.25;3.80;;;;;;;35.29;33.70;102092.63;5037227;28;20426;-70
2023/08/20 08:59:42;;;;;;;6.57;3.20;;;;;;;35.71;34.54;102088.59;5035142;28;20094;-70
2023/08/20 09:02:10;;;;;;;5.68;2.70;;;;;;;35.83;32.49;102097.94;5045954;28;20112;-70
2023/08/20 09:04:42;;;;;;;7.72;2.25;;;;;;;36.29;32.57;102093.38;5039030;28;20105;-70
2023/08/20 09:07:15;;;;;;;4.32;2.30;;;;;;;36.36;31.17;102092.25;5045207;28;20085;-70
2023/08/20 09:09:44;;;;;;;6.53;2.55;;;;;;;36.88;30.15;102095.03;5038171;28;20483;-70
2023/08/20 09:12:14;;;;;;;3.72;1.90;;;;;;;36.99;30.02;102094.34;5035906;28;20222;-71
2023/08/20 09:14:45;;;;;;;3.72;1.85;;;;;;;37.29;28.20;102093.69;5040877;28;20475;-70
2023/08/20 09:17:11;;;;;;;5.50;2.22;;;;;;;37.41;28.57;102091.91;5036139;28;20033;-71
2023/08/20 09:19:39;;;;;;;3.60;2.20;;;;;;;37.66;27.87;102097.47;5039010;28;20025;-72
2023/08/20 09:22:04;;;;;;;5.03;2.22;;;;;;;37.95;28.09;102097.84;5038285;28;20057;-71
2023/08/20 09:24:45;;;;;;;4.13;2.13;;;;;;;37.87;28.97;102096.22;5044010;28;20056;-72
2023/08/20 09:27:11;;;;;;;3.40;1.90;;;;;;;38.24;28.20;102096.25;5037014;28;20424;-72
2023/08/20 09:29:47;;;;;;;4.63;1.90;;;;;;;38.46;27.65;102097.50;5038777;28;20052;-72
2023/08/20 09:32:18;;;;;;;3.78;1.98;;;;;;;38.57;26.67;102093.91;5036866;28;20271;-74
2023/08/20 09:34:43;;;;;;;3.97;1.83;;;;;;;38.75;26.82;102094.94;5038365;28;20021;-72
2023/08/20 09:37:16;;;;;;;4.55;2.22;;;;;;;38.89;27.82;102093.72;5038369;28;20124;-73
2023/08/20 09:39:42;;;;;;;5.53;2.00;;;;;;;39.27;25.57;102092.50;5034570;28;20020;-73
2023/08/20 09:42:09;;;;;;;4.10;1.60;;;;;;;39.60;25.32;102098.34;5041562;28;20029;-72
2023/08/20 09:44:39;;;;;;;7.32;2.42;;;;;;;39.45;24.96;102100.75;5038811;28;20029;-75
2023/08/20 09:47:16;;;;;;;4.22;1.80;;;;;;;40.05;26.39;102099.72;5040290;28;20039;-75
2023/08/20 09:49:46;;;;;;;4.95;1.95;;;;;;;40.36;23.99;102092.88;5042448;28;20031;-75
2023/08/20 09:52:28;;;;;;;4.57;2.13;;;;;;;41.02;25.60;102096.16;5044990;28;20356;-76
2023/08/20 09:55:06;;;;;;;5.53;2.10;;;;;;;41.26;23.72;102092.13;5037449;28;20033;-75
2023/08/20 09:57:39;;;;;;;4.60;2.05;;;;;;;41.40;23.48;102094.59;5042784;28;20031;-76
2023/08/20 10:00:09;;;;;;;3.85;1.70;;;;;;;41.54;22.36;102090.34;5054853;28;20686;-74
2023/08/20 10:02:35;;;;;;;4.35;1.98;;;;;;;41.98;21.83;102096.91;5041771;28;20051;-75
2023/08/20 10:05:02;;;;;;;3.22;1.40;;;;;;;41.84;20.83;102089.97;5040720;28;20090;-74
2023/08/20 10:07:32;;;;;;;2.75;1.00;;;;;;;41.36;20.11;102094.22;5040082;28;20039;-72
2023/08/20 10:10:00;;;;;;;1.80;0.95;;;;;;;41.61;20.07;102096.63;5040981;28;20051;-74
2023/08/20 10:12:30;;;;;;;2.28;1.10;;;;;;;40.98;20.33;102087.44;5046442;28;20465;-74
2023/08/20 10:14:57;;;;;;;2.05;1.08;;;;;;;41.19;21.05;102093.38;5027286;28;20032;-73
2023/08/20 10:17:28;;;;;;;2.10;0.90;;;;;;;41.52;20.38;102090.63;5042896;28;20104;-72
2023/08/20 10:19:54;;;;;;;1.33;0.70;;;;;;;41.73;19.35;102099.31;5031167;28;20033;-74
2023/08/20 10:22:20;;;;;;;2.38;0.90;;;;;;;41.74;19.67;102099.03;5053367;28;20458;-74
2023/08/20 10:24:53;;;;;;;2.83;1.10;;;;;;;41.85;20.56;102090.81;5036516;28;20086;-73
2023/08/20 10:27:26;;;;;;;3.45;1.23;;;;;;;42.36;20.35;102095.19;5042262;28;20109;-74
2023/08/20 10:29:55;;;;;;;2.65;0.90;;;;;;;42.63;19.92;102098.00;5035636;28;20033;-73
2023/08/20 10:32:41;;;;;;;2.78;0.80;;;;;;;42.94;19.53;102092.78;5052685;28;20032;-73
2023/08/20 10:35:08;;;;;;;1.70;0.80;;;;;;;42.90;19.71;102092.47;5040641;28;20029;-74
2023/08/20 10:37:33;;;;;;;2.15;0.95;;;;;;;42.29;18.86;102097.34;5042356;28;20183;-73
2023/08/20 10:39:59;;;;;;;1.92;0.90;;;;;;;42.68;18.85;102105.66;5038151;28;20032;-75
2023/08/20 10:42:28;;;;;;;2.03;1.00;;;;;;;42.82;19.89;102101.34;5057266;28;20502;-73
2023/08/20 10:45:03;;;;;;;1.83;0.90;;;;;;;43.25;18.69;102100.34;5040339;28;20017;-74
2023/08/20 10:47:41;;;;;;;2.53;1.05;;;;;;;43.73;19.26;102100.47;5038478;28;20036;-73
2023/08/20 10:50:11;;;;;;;2.10;0.90;;;;;;;43.82;18.70;102098.84;5038618;28;20361;-74
2023/08/20 10:52:54;;;;;;;2.92;1.00;;;;;;;44.59;18.79;102097.25;5041955;28;20020;-73
2023/08/20 10:55:25;;;;;;;1.10;0.80;;;;;;;44.33;17.85;102101.94;5030990;28;20236;-73
2023/08/20 10:57:59;;;;;;;1.85;0.90;;;;;;;44.51;18.15;102094.13;5031214;28;20029;-71
2023/08/20 11:00:25;;;;;;;3.30;1.20;;;;;;;44.23;17.01;102091.50;5045091;28;20479;-73
2023/08/20 11:02:51;;;;;;;2.50;1.00;;;;;;;44.31;16.87;102092.94;5039048;28;20055;-73
2023/08/20 11:05:18;;;;;;;2.42;0.90;;;;;;;44.51;17.16;102105.38;5035683;28;20021;-75
2023/08/20 11:07:49;;;;;;;1.60;0.85;;;;;;;44.72;17.37;102101.53;5042179;28;20020;-76
2023/08/20 11:10:15;;;;;;;2.30;1.00;;;;;;;45.05;16.20;102085.31;5042654;28;20051;-75
2023/08/20 11:12:43;;;;;;;1.80;0.80;;;;;;;44.73;16.90;102081.59;5035780;28;20021;-77
2023/08/20 11:15:10;;;;;;;2.28;0.90;;;;;;;45.00;17.40;102090.91;5053236;28;20152;-73
2023/08/20 11:17:40;;;;;;;2.33;0.82;;;;;;;44.39;17.14;102088.75;5047167;28;20071;-73
2023/08/20 11:20:07;;;;;;;1.38;0.70;;;;;;;44.88;16.69;102085.53;5053464;28;20218;-73